sensor_id;sensor_type;location;lat;lon;timestamp;P1;durP1;ratioP1;P2;durP2;ratioP2
4385;SDS011;2207;53.540;10.042;2023-05-10T00:02:17;12.90;;;2.90;;
4385;SDS011;2207;53.540;10.042;2023-05-10T00:04:43;5.20;;;2.60;;
4385;SDS011;2207;53.540;10.042;2023-05-10T00:07:11;2.00;;;1.90;;
4385;SDS011;2207;53.540;10.042;2023-05-10T00:09:38;3.53;;;2.70;;
4385;SDS011;2207;53.540;10.042;2023-05-10T00:12:05;3.27;;;2.93;;
4385;SDS011;2207;53.540;10.042;2023-05-10T00:14:32;4.23;;;2.37;;
4385;SDS011;2207;53.540;10.042;2023-05-10T00:16:58;1.70;;;1.60;;
4385;SDS011;2207;53.540;10.042;2023-05-10T00:19:25;4.27;;;2.67;;
4385;SDS011;2207;53.540;10.042;2023-05-10T00:21:52;3.07;;;2.87;;
4385;SDS011;2207;53.540;10.042;2023-05-10T00:24:20;3.13;;;2.60;;
4385;SDS011;2207;53.540;10.042;2023-05-10T00:26:47;3.83;;;2.20;;
4385;SDS011;2207;53.540;10.042;2023-05-10T00:29:13;5.00;;;2.73;;
4385;SDS011;2207;53.540;10.042;2023-05-10T00:31:40;3.57;;;2.60;;
4385;SDS011;2207;53.540;10.042;2023-05-10T00:34:07;3.13;;;2.63;;
4385;SDS011;2207;53.540;10.042;2023-05-10T00:36:33;4.90;;;2.70;;
4385;SDS011;2207;53.540;10.042;2023-05-10T00:39:00;2.33;;;2.13;;
4385;SDS011;2207;53.540;10.042;2023-05-10T00:41:29;3.13;;;2.83;;
4385;SDS011;2207;53.540;10.042;2023-05-10T00:43:57;4.27;;;2.33;;
4385;SDS011;2207;53.540;10.042;2023-05-10T00:46:24;3.27;;;2.90;;
4385;SDS011;2207;53.540;10.042;2023-05-10T00:48:51;2.77;;;2.57;;
4385;SDS011;2207;53.540;10.042;2023-05-10T00:51:18;2.80;;;2.60;;
4385;SDS011;2207;53.540;10.042;2023-05-10T00:53:45;4.70;;;2.73;;
4385;SDS011;2207;53.540;10.042;2023-05-10T00:56:12;4.00;;;2.63;;
4385;SDS011;2207;53.540;10.042;2023-05-10T00:58:41;2.53;;;2.33;;
4385;SDS011;2207;53.540;10.042;2023-05-10T01:01:08;2.07;;;1.97;;
4385;SDS011;2207;53.540;10.042;2023-05-10T01:03:35;3.87;;;2.20;;
4385;SDS011;2207;53.540;10.042;2023-05-10T01:06:02;9.80;;;3.27;;
4385;SDS011;2207;53.540;10.042;2023-05-10T01:08:29;3.30;;;2.57;;
4385;SDS011;2207;53.540;10.042;2023-05-10T01:10:56;2.87;;;2.60;;
4385;SDS011;2207;53.540;10.042;2023-05-10T01:13:28;2.80;;;2.60;;
4385;SDS011;2207;53.540;10.042;2023-05-10T01:16:00;4.00;;;3.03;;
4385;SDS011;2207;53.540;10.042;2023-05-10T01:18:28;4.00;;;2.87;;
4385;SDS011;2207;53.540;10.042;2023-05-10T01:21:01;3.87;;;2.60;;
4385;SDS011;2207;53.540;10.042;2023-05-10T01:26:44;3.37;;;2.83;;
4385;SDS011;2207;53.540;10.042;2023-05-10T01:29:33;4.20;;;2.47;;
4385;SDS011;2207;53.540;10.042;2023-05-10T01:32:30;3.07;;;2.87;;
4385;SDS011;2207;53.540;10.042;2023-05-10T01:35:02;8.47;;;3.37;;
4385;SDS011;2207;53.540;10.042;2023-05-10T01:37:34;5.00;;;3.67;;
4385;SDS011;2207;53.540;10.042;2023-05-10T01:40:09;8.90;;;2.70;;
4385;SDS011;2207;53.540;10.042;2023-05-10T01:42:46;5.60;;;2.30;;
4385;SDS011;2207;53.540;10.042;2023-05-10T01:45:19;2.50;;;2.30;;
4385;SDS011;2207;53.540;10.042;2023-05-10T01:47:54;4.70;;;2.50;;
4385;SDS011;2207;53.540;10.042;2023-05-10T01:50:29;4.47;;;2.80;;
4385;SDS011;2207;53.540;10.042;2023-05-10T01:52:57;3.20;;;2.50;;
4385;SDS011;2207;53.540;10.042;2023-05-10T01:55:27;2.97;;;2.30;;
4385;SDS011;2207;53.540;10.042;2023-05-10T01:57:58;3.80;;;3.07;;
4385;SDS011;2207;53.540;10.042;2023-05-10T02:00:29;6.50;;;2.80;;
4385;SDS011;2207;53.540;10.042;2023-05-10T02:02:58;3.10;;;2.90;;
4385;SDS011;2207;53.540;10.042;2023-05-10T02:05:28;3.13;;;2.80;;
4385;SDS011;2207;53.540;10.042;2023-05-10T02:07:55;2.77;;;2.57;;
4385;SDS011;2207;53.540;10.042;2023-05-10T02:10:25;2.83;;;2.60;;
4385;SDS011;2207;53.540;10.042;2023-05-10T02:12:53;15.53;;;2.90;;
4385;SDS011;2207;53.540;10.042;2023-05-10T02:15:22;2.30;;;2.10;;
4385;SDS011;2207;53.540;10.042;2023-05-10T02:17:50;4.43;;;3.57;;
4385;SDS011;2207;53.540;10.042;2023-05-10T02:20:21;4.63;;;2.93;;
4385;SDS011;2207;53.540;10.042;2023-05-10T02:22:50;5.00;;;3.63;;
4385;SDS011;2207;53.540;10.042;2023-05-10T02:25:19;3.70;;;3.00;;
4385;SDS011;2207;53.540;10.042;2023-05-10T02:27:47;3.83;;;2.60;;
4385;SDS011;2207;53.540;10.042;2023-05-10T02:30:14;6.83;;;3.50;;
4385;SDS011;2207;53.540;10.042;2023-05-10T02:32:42;2.50;;;2.30;;
4385;SDS011;2207;53.540;10.042;2023-05-10T02:35:10;4.73;;;2.60;;
4385;SDS011;2207;53.540;10.042;2023-05-10T02:37:38;3.13;;;2.83;;
4385;SDS011;2207;53.540;10.042;2023-05-10T02:40:06;4.70;;;2.70;;
4385;SDS011;2207;53.540;10.042;2023-05-10T02:42:35;3.80;;;3.20;;
4385;SDS011;2207;53.540;10.042;2023-05-10T02:45:05;3.03;;;2.50;;
4385;SDS011;2207;53.540;10.042;2023-05-10T02:47:35;2.90;;;2.67;;
4385;SDS011;2207;53.540;10.042;2023-05-10T02:50:02;8.10;;;3.10;;
4385;SDS011;2207;53.540;10.042;2023-05-10T02:52:30;11.60;;;3.00;;
4385;SDS011;2207;53.540;10.042;2023-05-10T02:55:11;3.53;;;3.23;;
4385;SDS011;2207;53.540;10.042;2023-05-10T02:57:41;2.43;;;2.33;;
4385;SDS011;2207;53.540;10.042;2023-05-10T03:00:14;2.90;;;2.70;;
4385;SDS011;2207;53.540;10.042;2023-05-10T03:02:41;4.00;;;3.20;;
4385;SDS011;2207;53.540;10.042;2023-05-10T03:05:07;6.40;;;3.10;;
4385;SDS011;2207;53.540;10.042;2023-05-10T03:07:34;5.90;;;3.33;;
4385;SDS011;2207;53.540;10.042;2023-05-10T03:10:04;4.70;;;2.90;;
4385;SDS011;2207;53.540;10.042;2023-05-10T03:12:33;3.67;;;3.17;;
4385;SDS011;2207;53.540;10.042;2023-05-10T03:15:13;3.10;;;2.90;;
4385;SDS011;2207;53.540;10.042;2023-05-10T03:17:46;5.30;;;3.60;;
4385;SDS011;2207;53.540;10.042;2023-05-10T03:20:20;3.17;;;2.77;;
4385;SDS011;2207;53.540;10.042;2023-05-10T03:22:51;4.03;;;3.10;;
4385;SDS011;2207;53.540;10.042;2023-05-10T03:25:23;4.43;;;3.33;;
4385;SDS011;2207;53.540;10.042;2023-05-10T03:27:50;3.17;;;2.80;;
4385;SDS011;2207;53.540;10.042;2023-05-10T03:30:18;4.17;;;3.33;;
4385;SDS011;2207;53.540;10.042;2023-05-10T03:32:45;4.00;;;3.17;;
4385;SDS011;2207;53.540;10.042;2023-05-10T03:35:12;8.73;;;2.63;;
4385;SDS011;2207;53.540;10.042;2023-05-10T03:37:39;4.03;;;2.90;;
4385;SDS011;2207;53.540;10.042;2023-05-10T03:40:06;3.97;;;3.07;;
4385;SDS011;2207;53.540;10.042;2023-05-10T03:42:35;2.30;;;2.10;;
4385;SDS011;2207;53.540;10.042;2023-05-10T03:45:02;3.00;;;2.70;;
4385;SDS011;2207;53.540;10.042;2023-05-10T03:47:29;4.53;;;2.70;;
4385;SDS011;2207;53.540;10.042;2023-05-10T03:49:56;4.90;;;3.07;;
4385;SDS011;2207;53.540;10.042;2023-05-10T03:52:23;3.60;;;2.60;;
4385;SDS011;2207;53.540;10.042;2023-05-10T03:54:50;3.63;;;3.33;;
4385;SDS011;2207;53.540;10.042;2023-05-10T03:57:17;5.83;;;3.27;;
4385;SDS011;2207;53.540;10.042;2023-05-10T03:59:45;6.90;;;2.90;;
4385;SDS011;2207;53.540;10.042;2023-05-10T04:02:11;3.57;;;2.80;;
4385;SDS011;2207;53.540;10.042;2023-05-10T04:04:38;8.20;;;2.87;;
4385;SDS011;2207;53.540;10.042;2023-05-10T04:07:05;3.67;;;2.60;;
4385;SDS011;2207;53.540;10.042;2023-05-10T04:09:31;5.60;;;2.93;;
4385;SDS011;2207;53.540;10.042;2023-05-10T04:11:58;4.77;;;2.63;;
4385;SDS011;2207;53.540;10.042;2023-05-10T04:14:27;4.83;;;2.73;;
4385;SDS011;2207;53.540;10.042;2023-05-10T04:16:55;2.57;;;2.37;;
4385;SDS011;2207;53.540;10.042;2023-05-10T04:19:22;3.30;;;2.27;;
4385;SDS011;2207;53.540;10.042;2023-05-10T04:21:48;7.53;;;3.10;;
4385;SDS011;2207;53.540;10.042;2023-05-10T04:24:15;6.53;;;3.50;;
4385;SDS011;2207;53.540;10.042;2023-05-10T04:26:42;4.73;;;2.80;;
4385;SDS011;2207;53.540;10.042;2023-05-10T04:29:09;3.70;;;3.40;;
4385;SDS011;2207;53.540;10.042;2023-05-10T04:31:35;3.40;;;3.00;;
4385;SDS011;2207;53.540;10.042;2023-05-10T04:34:03;3.17;;;2.53;;
4385;SDS011;2207;53.540;10.042;2023-05-10T04:38:58;3.73;;;2.70;;
4385;SDS011;2207;53.540;10.042;2023-05-10T04:41:24;3.23;;;2.93;;
4385;SDS011;2207;53.540;10.042;2023-05-10T04:43:51;2.97;;;2.50;;
4385;SDS011;2207;53.540;10.042;2023-05-10T04:46:18;5.80;;;3.43;;
4385;SDS011;2207;53.540;10.042;2023-05-10T04:48:45;8.00;;;3.03;;
4385;SDS011;2207;53.540;10.042;2023-05-10T04:51:13;7.23;;;3.13;;
4385;SDS011;2207;53.540;10.042;2023-05-10T04:53:39;9.03;;;3.60;;
4385;SDS011;2207;53.540;10.042;2023-05-10T04:56:06;4.67;;;3.27;;
4385;SDS011;2207;53.540;10.042;2023-05-10T04:58:33;3.27;;;3.07;;
4385;SDS011;2207;53.540;10.042;2023-05-10T05:01:04;11.33;;;3.70;;
4385;SDS011;2207;53.540;10.042;2023-05-10T05:03:32;3.20;;;2.90;;
4385;SDS011;2207;53.540;10.042;2023-05-10T05:05:58;3.40;;;2.80;;
4385;SDS011;2207;53.540;10.042;2023-05-10T05:08:26;11.80;;;2.77;;
4385;SDS011;2207;53.540;10.042;2023-05-10T05:10:55;3.73;;;2.60;;
4385;SDS011;2207;53.540;10.042;2023-05-10T05:13:22;3.47;;;3.17;;
4385;SDS011;2207;53.540;10.042;2023-05-10T05:15:49;4.37;;;3.17;;
4385;SDS011;2207;53.540;10.042;2023-05-10T05:18:15;5.30;;;3.43;;
4385;SDS011;2207;53.540;10.042;2023-05-10T05:20:42;5.97;;;3.57;;
4385;SDS011;2207;53.540;10.042;2023-05-10T05:23:09;5.70;;;2.93;;
4385;SDS011;2207;53.540;10.042;2023-05-10T05:25:37;3.50;;;3.20;;
4385;SDS011;2207;53.540;10.042;2023-05-10T05:28:03;3.80;;;3.10;;
4385;SDS011;2207;53.540;10.042;2023-05-10T05:30:30;5.47;;;3.23;;
4385;SDS011;2207;53.540;10.042;2023-05-10T05:32:57;7.43;;;3.77;;
4385;SDS011;2207;53.540;10.042;2023-05-10T05:35:24;4.07;;;2.87;;
4385;SDS011;2207;53.540;10.042;2023-05-10T05:37:51;6.03;;;3.50;;
4385;SDS011;2207;53.540;10.042;2023-05-10T05:40:17;5.73;;;3.60;;
4385;SDS011;2207;53.540;10.042;2023-05-10T05:42:46;5.73;;;3.13;;
4385;SDS011;2207;53.540;10.042;2023-05-10T05:45:13;2.80;;;2.60;;
4385;SDS011;2207;53.540;10.042;2023-05-10T05:47:40;4.03;;;3.20;;
4385;SDS011;2207;53.540;10.042;2023-05-10T05:50:07;2.90;;;2.70;;
4385;SDS011;2207;53.540;10.042;2023-05-10T05:52:34;4.03;;;3.53;;
4385;SDS011;2207;53.540;10.042;2023-05-10T05:55:01;7.60;;;3.50;;
4385;SDS011;2207;53.540;10.042;2023-05-10T05:57:28;4.50;;;2.97;;
4385;SDS011;2207;53.540;10.042;2023-05-10T05:59:56;8.03;;;2.90;;
4385;SDS011;2207;53.540;10.042;2023-05-10T06:02:23;5.50;;;3.17;;
4385;SDS011;2207;53.540;10.042;2023-05-10T06:04:50;8.17;;;3.40;;
4385;SDS011;2207;53.540;10.042;2023-05-10T06:07:16;5.77;;;3.20;;
4385;SDS011;2207;53.540;10.042;2023-05-10T06:09:43;5.00;;;3.57;;
4385;SDS011;2207;53.540;10.042;2023-05-10T06:12:10;4.23;;;3.13;;
4385;SDS011;2207;53.540;10.042;2023-05-10T06:14:37;3.77;;;3.47;;
4385;SDS011;2207;53.540;10.042;2023-05-10T06:17:05;6.47;;;3.47;;
4385;SDS011;2207;53.540;10.042;2023-05-10T06:19:32;3.00;;;2.17;;
4385;SDS011;2207;53.540;10.042;2023-05-10T06:21:59;4.07;;;3.00;;
4385;SDS011;2207;53.540;10.042;2023-05-10T06:24:26;4.23;;;3.50;;
4385;SDS011;2207;53.540;10.042;2023-05-10T06:26:53;4.63;;;3.47;;
4385;SDS011;2207;53.540;10.042;2023-05-10T06:29:19;8.43;;;3.90;;
4385;SDS011;2207;53.540;10.042;2023-05-10T06:31:46;9.10;;;3.83;;
4385;SDS011;2207;53.540;10.042;2023-05-10T06:34:15;5.47;;;4.20;;
4385;SDS011;2207;53.540;10.042;2023-05-10T06:36:41;4.57;;;4.17;;
4385;SDS011;2207;53.540;10.042;2023-05-10T06:39:08;4.30;;;3.23;;
4385;SDS011;2207;53.540;10.042;2023-05-10T06:44:10;8.37;;;4.10;;
4385;SDS011;2207;53.540;10.042;2023-05-10T06:46:37;7.73;;;3.70;;
4385;SDS011;2207;53.540;10.042;2023-05-10T06:49:04;6.50;;;3.97;;
4385;SDS011;2207;53.540;10.042;2023-05-10T06:51:32;6.07;;;3.60;;
4385;SDS011;2207;53.540;10.042;2023-05-10T06:53:59;4.80;;;3.77;;
4385;SDS011;2207;53.540;10.042;2023-05-10T06:56:26;11.83;;;4.20;;
4385;SDS011;2207;53.540;10.042;2023-05-10T06:58:52;5.20;;;4.00;;
4385;SDS011;2207;53.540;10.042;2023-05-10T07:01:19;5.30;;;3.70;;
4385;SDS011;2207;53.540;10.042;2023-05-10T07:03:46;4.27;;;3.67;;
4385;SDS011;2207;53.540;10.042;2023-05-10T07:06:12;4.80;;;3.37;;
4385;SDS011;2207;53.540;10.042;2023-05-10T07:08:40;4.13;;;3.37;;
4385;SDS011;2207;53.540;10.042;2023-05-10T07:11:07;4.97;;;3.50;;
4385;SDS011;2207;53.540;10.042;2023-05-10T07:13:35;4.17;;;3.37;;
4385;SDS011;2207;53.540;10.042;2023-05-10T07:16:04;4.67;;;3.50;;
4385;SDS011;2207;53.540;10.042;2023-05-10T07:18:31;9.67;;;4.00;;
4385;SDS011;2207;53.540;10.042;2023-05-10T07:20:58;6.13;;;4.30;;
4385;SDS011;2207;53.540;10.042;2023-05-10T07:23:24;5.23;;;3.10;;
4385;SDS011;2207;53.540;10.042;2023-05-10T07:25:53;3.77;;;3.40;;
4385;SDS011;2207;53.540;10.042;2023-05-10T07:28:19;9.90;;;3.90;;
4385;SDS011;2207;53.540;10.042;2023-05-10T07:30:46;3.87;;;3.20;;
4385;SDS011;2207;53.540;10.042;2023-05-10T07:33:13;7.70;;;4.80;;
4385;SDS011;2207;53.540;10.042;2023-05-10T07:35:41;5.13;;;3.23;;
4385;SDS011;2207;53.540;10.042;2023-05-10T07:38:08;7.47;;;3.43;;
4385;SDS011;2207;53.540;10.042;2023-05-10T07:40:36;4.00;;;3.10;;
4385;SDS011;2207;53.540;10.042;2023-05-10T07:43:04;3.77;;;3.47;;
4385;SDS011;2207;53.540;10.042;2023-05-10T07:45:32;4.47;;;3.40;;
4385;SDS011;2207;53.540;10.042;2023-05-10T07:47:59;5.63;;;3.93;;
4385;SDS011;2207;53.540;10.042;2023-05-10T07:50:26;3.70;;;3.40;;
4385;SDS011;2207;53.540;10.042;2023-05-10T07:52:53;10.00;;;3.10;;
4385;SDS011;2207;53.540;10.042;2023-05-10T07:55:20;5.37;;;3.60;;
4385;SDS011;2207;53.540;10.042;2023-05-10T07:57:47;4.93;;;3.47;;
4385;SDS011;2207;53.540;10.042;2023-05-10T08:00:21;6.50;;;4.10;;
4385;SDS011;2207;53.540;10.042;2023-05-10T08:02:48;4.13;;;3.30;;
4385;SDS011;2207;53.540;10.042;2023-05-10T08:05:15;5.17;;;3.20;;
4385;SDS011;2207;53.540;10.042;2023-05-10T08:07:41;6.20;;;4.13;;
4385;SDS011;2207;53.540;10.042;2023-05-10T08:10:08;4.00;;;3.60;;
4385;SDS011;2207;53.540;10.042;2023-05-10T08:12:37;3.40;;;3.13;;
4385;SDS011;2207;53.540;10.042;2023-05-10T08:15:04;8.33;;;4.73;;
4385;SDS011;2207;53.540;10.042;2023-05-10T08:17:33;6.80;;;3.60;;
4385;SDS011;2207;53.540;10.042;2023-05-10T08:20:00;4.03;;;3.63;;
4385;SDS011;2207;53.540;10.042;2023-05-10T08:22:27;4.83;;;4.00;;
4385;SDS011;2207;53.540;10.042;2023-05-10T08:24:54;13.20;;;4.13;;
4385;SDS011;2207;53.540;10.042;2023-05-10T08:27:20;6.40;;;3.10;;
4385;SDS011;2207;53.540;10.042;2023-05-10T08:29:49;4.87;;;4.07;;
4385;SDS011;2207;53.540;10.042;2023-05-10T08:32:16;10.93;;;4.30;;
4385;SDS011;2207;53.540;10.042;2023-05-10T08:34:44;8.50;;;5.20;;
4385;SDS011;2207;53.540;10.042;2023-05-10T08:37:11;5.30;;;4.10;;
4385;SDS011;2207;53.540;10.042;2023-05-10T08:39:38;3.43;;;3.13;;
4385;SDS011;2207;53.540;10.042;2023-05-10T08:42:05;6.53;;;3.77;;
4385;SDS011;2207;53.540;10.042;2023-05-10T08:44:34;7.50;;;4.17;;
4385;SDS011;2207;53.540;10.042;2023-05-10T08:47:15;7.77;;;3.50;;
4385;SDS011;2207;53.540;10.042;2023-05-10T08:49:45;5.10;;;3.40;;
4385;SDS011;2207;53.540;10.042;2023-05-10T08:52:13;9.30;;;4.87;;
4385;SDS011;2207;53.540;10.042;2023-05-10T08:54:42;11.10;;;4.00;;
4385;SDS011;2207;53.540;10.042;2023-05-10T08:57:09;9.60;;;5.93;;
4385;SDS011;2207;53.540;10.042;2023-05-10T08:59:36;5.90;;;4.00;;
4385;SDS011;2207;53.540;10.042;2023-05-10T09:02:04;4.10;;;3.40;;
4385;SDS011;2207;53.540;10.042;2023-05-10T09:04:32;6.00;;;4.40;;
4385;SDS011;2207;53.540;10.042;2023-05-10T09:07:00;7.63;;;3.43;;
4385;SDS011;2207;53.540;10.042;2023-05-10T09:09:27;6.50;;;4.57;;
4385;SDS011;2207;53.540;10.042;2023-05-10T09:11:54;7.93;;;4.10;;
4385;SDS011;2207;53.540;10.042;2023-05-10T09:14:21;5.67;;;4.17;;
4385;SDS011;2207;53.540;10.042;2023-05-10T09:16:50;4.20;;;3.80;;
4385;SDS011;2207;53.540;10.042;2023-05-10T09:19:18;5.07;;;4.17;;
4385;SDS011;2207;53.540;10.042;2023-05-10T09:21:45;5.17;;;4.10;;
4385;SDS011;2207;53.540;10.042;2023-05-10T09:24:13;4.27;;;3.97;;
4385;SDS011;2207;53.540;10.042;2023-05-10T09:26:45;6.67;;;3.70;;
4385;SDS011;2207;53.540;10.042;2023-05-10T09:29:13;5.53;;;4.10;;
4385;SDS011;2207;53.540;10.042;2023-05-10T09:31:43;4.70;;;4.30;;
4385;SDS011;2207;53.540;10.042;2023-05-10T09:34:11;4.40;;;4.00;;
4385;SDS011;2207;53.540;10.042;2023-05-10T09:36:50;4.13;;;3.77;;
4385;SDS011;2207;53.540;10.042;2023-05-10T09:39:18;4.13;;;3.80;;
4385;SDS011;2207;53.540;10.042;2023-05-10T09:41:46;11.50;;;3.70;;
4385;SDS011;2207;53.540;10.042;2023-05-10T09:44:16;13.13;;;3.77;;
4385;SDS011;2207;53.540;10.042;2023-05-10T09:46:48;5.73;;;4.60;;
4385;SDS011;2207;53.540;10.042;2023-05-10T09:49:16;9.60;;;5.17;;
4385;SDS011;2207;53.540;10.042;2023-05-10T09:51:42;6.17;;;5.30;;
4385;SDS011;2207;53.540;10.042;2023-05-10T09:54:09;4.67;;;4.27;;
4385;SDS011;2207;53.540;10.042;2023-05-10T09:56:39;7.33;;;5.03;;
4385;SDS011;2207;53.540;10.042;2023-05-10T09:59:07;5.33;;;4.83;;
4385;SDS011;2207;53.540;10.042;2023-05-10T10:01:35;7.30;;;6.23;;
4385;SDS011;2207;53.540;10.042;2023-05-10T10:04:03;5.33;;;4.80;;
4385;SDS011;2207;53.540;10.042;2023-05-10T10:06:34;6.03;;;3.80;;
4385;SDS011;2207;53.540;10.042;2023-05-10T10:09:03;9.03;;;5.23;;
4385;SDS011;2207;53.540;10.042;2023-05-10T10:11:30;6.13;;;5.50;;
4385;SDS011;2207;53.540;10.042;2023-05-10T10:13:59;5.90;;;5.20;;
4385;SDS011;2207;53.540;10.042;2023-05-10T10:16:26;6.47;;;5.97;;
4385;SDS011;2207;53.540;10.042;2023-05-10T10:18:54;5.63;;;5.17;;
4385;SDS011;2207;53.540;10.042;2023-05-10T10:21:22;7.00;;;5.00;;
4385;SDS011;2207;53.540;10.042;2023-05-10T10:23:49;6.40;;;5.47;;
4385;SDS011;2207;53.540;10.042;2023-05-10T10:26:15;6.47;;;5.20;;
4385;SDS011;2207;53.540;10.042;2023-05-10T10:28:46;9.40;;;7.03;;
4385;SDS011;2207;53.540;10.042;2023-05-10T10:31:21;6.37;;;5.73;;
4385;SDS011;2207;53.540;10.042;2023-05-10T10:33:59;11.90;;;6.00;;
4385;SDS011;2207;53.540;10.042;2023-05-10T10:36:27;5.97;;;5.47;;
4385;SDS011;2207;53.540;10.042;2023-05-10T10:38:58;7.73;;;6.17;;
4385;SDS011;2207;53.540;10.042;2023-05-10T10:41:30;10.53;;;8.53;;
4385;SDS011;2207;53.540;10.042;2023-05-10T10:47:05;11.23;;;6.37;;
4385;SDS011;2207;53.540;10.042;2023-05-10T10:49:42;11.90;;;6.73;;
4385;SDS011;2207;53.540;10.042;2023-05-10T10:52:24;6.67;;;6.03;;
4385;SDS011;2207;53.540;10.042;2023-05-10T10:54:57;9.13;;;5.97;;
4385;SDS011;2207;53.540;10.042;2023-05-10T10:57:26;11.67;;;7.40;;
4385;SDS011;2207;53.540;10.042;2023-05-10T11:02:49;6.30;;;5.67;;
4385;SDS011;2207;53.540;10.042;2023-05-10T11:08:12;6.93;;;6.07;;
4385;SDS011;2207;53.540;10.042;2023-05-10T11:10:49;6.97;;;6.33;;
4385;SDS011;2207;53.540;10.042;2023-05-10T11:13:29;9.67;;;6.60;;
4385;SDS011;2207;53.540;10.042;2023-05-10T11:15:57;11.30;;;6.87;;
4385;SDS011;2207;53.540;10.042;2023-05-10T11:18:29;7.17;;;5.83;;
4385;SDS011;2207;53.540;10.042;2023-05-10T11:20:57;6.93;;;6.23;;
4385;SDS011;2207;53.540;10.042;2023-05-10T11:23:29;12.87;;;8.70;;
4385;SDS011;2207;53.540;10.042;2023-05-10T11:25:56;8.37;;;7.10;;
4385;SDS011;2207;53.540;10.042;2023-05-10T11:28:24;8.00;;;7.20;;
4385;SDS011;2207;53.540;10.042;2023-05-10T11:30:52;7.20;;;6.50;;
4385;SDS011;2207;53.540;10.042;2023-05-10T11:33:20;6.00;;;5.50;;
4385;SDS011;2207;53.540;10.042;2023-05-10T11:35:48;8.90;;;6.23;;
4385;SDS011;2207;53.540;10.042;2023-05-10T11:38:15;7.20;;;6.40;;
4385;SDS011;2207;53.540;10.042;2023-05-10T11:40:42;7.23;;;6.53;;
4385;SDS011;2207;53.540;10.042;2023-05-10T11:43:09;8.00;;;6.63;;
4385;SDS011;2207;53.540;10.042;2023-05-10T11:45:37;7.32;;;6.50;;
4385;SDS011;2207;53.540;10.042;2023-05-10T11:48:04;11.67;;;7.97;;
4385;SDS011;2207;53.540;10.042;2023-05-10T11:50:31;11.30;;;7.97;;
4385;SDS011;2207;53.540;10.042;2023-05-10T11:52:59;9.00;;;7.27;;
4385;SDS011;2207;53.540;10.042;2023-05-10T11:55:26;9.50;;;7.77;;
4385;SDS011;2207;53.540;10.042;2023-05-10T11:57:55;7.27;;;6.57;;
4385;SDS011;2207;53.540;10.042;2023-05-10T12:00:26;11.37;;;6.63;;
4385;SDS011;2207;53.540;10.042;2023-05-10T12:02:52;12.40;;;6.77;;
4385;SDS011;2207;53.540;10.042;2023-05-10T12:05:19;9.20;;;7.70;;
4385;SDS011;2207;53.540;10.042;2023-05-10T12:07:46;8.77;;;7.30;;
4385;SDS011;2207;53.540;10.042;2023-05-10T12:10:14;9.33;;;8.37;;
4385;SDS011;2207;53.540;10.042;2023-05-10T12:12:43;12.80;;;9.43;;
4385;SDS011;2207;53.540;10.042;2023-05-10T12:15:12;10.13;;;8.37;;
4385;SDS011;2207;53.540;10.042;2023-05-10T12:17:44;10.20;;;7.60;;
4385;SDS011;2207;53.540;10.042;2023-05-10T12:20:14;7.40;;;6.20;;
4385;SDS011;2207;53.540;10.042;2023-05-10T12:22:46;6.83;;;6.03;;
4385;SDS011;2207;53.540;10.042;2023-05-10T12:25:14;9.07;;;7.37;;
4385;SDS011;2207;53.540;10.042;2023-05-10T12:27:47;8.50;;;7.70;;
4385;SDS011;2207;53.540;10.042;2023-05-10T12:30:18;7.93;;;6.37;;
4385;SDS011;2207;53.540;10.042;2023-05-10T12:32:46;7.90;;;7.10;;
4385;SDS011;2207;53.540;10.042;2023-05-10T12:35:13;7.00;;;6.40;;
4385;SDS011;2207;53.540;10.042;2023-05-10T12:37:41;10.27;;;8.00;;
4385;SDS011;2207;53.540;10.042;2023-05-10T12:40:09;6.93;;;6.27;;
4385;SDS011;2207;53.540;10.042;2023-05-10T12:42:42;9.10;;;5.97;;
4385;SDS011;2207;53.540;10.042;2023-05-10T12:45:10;8.53;;;7.73;;
4385;SDS011;2207;53.540;10.042;2023-05-10T12:47:37;7.27;;;6.63;;
4385;SDS011;2207;53.540;10.042;2023-05-10T12:50:04;8.30;;;7.27;;
4385;SDS011;2207;53.540;10.042;2023-05-10T12:52:32;8.53;;;7.63;;
4385;SDS011;2207;53.540;10.042;2023-05-10T12:54:59;5.43;;;4.93;;
4385;SDS011;2207;53.540;10.042;2023-05-10T12:57:26;5.60;;;5.10;;
4385;SDS011;2207;53.540;10.042;2023-05-10T12:59:54;10.00;;;7.00;;
4385;SDS011;2207;53.540;10.042;2023-05-10T13:02:21;9.30;;;6.63;;
4385;SDS011;2207;53.540;10.042;2023-05-10T13:04:48;5.73;;;4.80;;
4385;SDS011;2207;53.540;10.042;2023-05-10T13:07:15;6.97;;;6.37;;
4385;SDS011;2207;53.540;10.042;2023-05-10T13:09:42;6.00;;;5.47;;
4385;SDS011;2207;53.540;10.042;2023-05-10T13:12:08;5.57;;;5.07;;
4385;SDS011;2207;53.540;10.042;2023-05-10T13:14:35;9.23;;;7.80;;
4385;SDS011;2207;53.540;10.042;2023-05-10T13:17:03;6.47;;;5.87;;
4385;SDS011;2207;53.540;10.042;2023-05-10T13:19:30;6.03;;;4.40;;
4385;SDS011;2207;53.540;10.042;2023-05-10T13:21:57;5.90;;;5.40;;
4385;SDS011;2207;53.540;10.042;2023-05-10T13:24:23;6.93;;;4.67;;
4385;SDS011;2207;53.540;10.042;2023-05-10T13:26:50;9.10;;;6.47;;
4385;SDS011;2207;53.540;10.042;2023-05-10T13:29:17;5.33;;;4.40;;
4385;SDS011;2207;53.540;10.042;2023-05-10T13:31:44;4.80;;;4.40;;
4385;SDS011;2207;53.540;10.042;2023-05-10T13:34:12;3.90;;;3.60;;
4385;SDS011;2207;53.540;10.042;2023-05-10T13:36:39;4.50;;;4.17;;
4385;SDS011;2207;53.540;10.042;2023-05-10T13:39:06;4.33;;;3.93;;
4385;SDS011;2207;53.540;10.042;2023-05-10T13:41:33;4.23;;;3.63;;
4385;SDS011;2207;53.540;10.042;2023-05-10T13:44:00;3.90;;;3.60;;
4385;SDS011;2207;53.540;10.042;2023-05-10T13:46:28;4.90;;;4.50;;
4385;SDS011;2207;53.540;10.042;2023-05-10T13:48:55;5.00;;;4.00;;
4385;SDS011;2207;53.540;10.042;2023-05-10T13:51:24;4.80;;;4.40;;
4385;SDS011;2207;53.540;10.042;2023-05-10T13:53:51;8.00;;;6.50;;
4385;SDS011;2207;53.540;10.042;2023-05-10T13:56:18;4.67;;;4.27;;
4385;SDS011;2207;53.540;10.042;2023-05-10T13:58:44;5.40;;;4.50;;
4385;SDS011;2207;53.540;10.042;2023-05-10T14:01:11;5.97;;;4.73;;
4385;SDS011;2207;53.540;10.042;2023-05-10T14:03:38;6.50;;;4.67;;
4385;SDS011;2207;53.540;10.042;2023-05-10T14:06:04;13.00;;;4.50;;
4385;SDS011;2207;53.540;10.042;2023-05-10T14:08:33;4.80;;;4.40;;
4385;SDS011;2207;53.540;10.042;2023-05-10T14:11:00;5.27;;;4.77;;
4385;SDS011;2207;53.540;10.042;2023-05-10T14:13:27;4.87;;;4.47;;
4385;SDS011;2207;53.540;10.042;2023-05-10T14:15:54;7.10;;;4.47;;
4385;SDS011;2207;53.540;10.042;2023-05-10T14:18:21;4.63;;;4.23;;
4385;SDS011;2207;53.540;10.042;2023-05-10T14:20:48;4.60;;;4.13;;
4385;SDS011;2207;53.540;10.042;2023-05-10T14:23:15;4.07;;;3.77;;
4385;SDS011;2207;53.540;10.042;2023-05-10T14:25:43;4.60;;;4.20;;
4385;SDS011;2207;53.540;10.042;2023-05-10T14:28:10;4.10;;;3.80;;
4385;SDS011;2207;53.540;10.042;2023-05-10T14:30:37;7.13;;;4.30;;
4385;SDS011;2207;53.540;10.042;2023-05-10T14:33:03;8.83;;;7.50;;
4385;SDS011;2207;53.540;10.042;2023-05-10T14:35:30;5.47;;;4.97;;
4385;SDS011;2207;53.540;10.042;2023-05-10T14:37:57;4.73;;;4.33;;
4385;SDS011;2207;53.540;10.042;2023-05-10T14:40:24;4.63;;;4.20;;
4385;SDS011;2207;53.540;10.042;2023-05-10T14:42:59;5.37;;;4.10;;
4385;SDS011;2207;53.540;10.042;2023-05-10T14:45:26;5.00;;;4.53;;
4385;SDS011;2207;53.540;10.042;2023-05-10T14:47:52;5.20;;;4.70;;
4385;SDS011;2207;53.540;10.042;2023-05-10T14:50:19;5.93;;;4.27;;
4385;SDS011;2207;53.540;10.042;2023-05-10T14:52:46;4.60;;;4.30;;
4385;SDS011;2207;53.540;10.042;2023-05-10T14:55:12;6.30;;;5.20;;
4385;SDS011;2207;53.540;10.042;2023-05-10T14:57:39;5.23;;;4.83;;
4385;SDS011;2207;53.540;10.042;2023-05-10T15:00:08;4.93;;;4.53;;
4385;SDS011;2207;53.540;10.042;2023-05-10T15:02:36;4.37;;;4.07;;
4385;SDS011;2207;53.540;10.042;2023-05-10T15:05:03;5.13;;;4.53;;
4385;SDS011;2207;53.540;10.042;2023-05-10T15:07:31;5.10;;;4.70;;
4385;SDS011;2207;53.540;10.042;2023-05-10T15:09:57;4.50;;;4.20;;
4385;SDS011;2207;53.540;10.042;2023-05-10T15:12:24;4.40;;;4.00;;
4385;SDS011;2207;53.540;10.042;2023-05-10T15:14:51;5.10;;;4.60;;
4385;SDS011;2207;53.540;10.042;2023-05-10T15:17:19;4.50;;;4.20;;
4385;SDS011;2207;53.540;10.042;2023-05-10T15:19:45;4.43;;;4.03;;
4385;SDS011;2207;53.540;10.042;2023-05-10T15:22:12;4.33;;;3.73;;
4385;SDS011;2207;53.540;10.042;2023-05-10T15:24:39;4.80;;;4.40;;